Time;durP1;ratioP1;P1;durP2;ratioP2;P2;SDS_P1;SDS_P2;PMS_P1;PMS_P2;Temp;Humidity;BMP_temperature;BMP_pressure;BME280_temperature;BME280_humidity;BME280_pressure;Samples;Min_cycle;Max_cycle;Signal;HPM_P1;HPM_P2
2021/08/22 08:03:54;;;;;;;13.68;3.10;;;19.20;99.90;;;;;;12094010;27;20460;-61
2021/08/22 08:17:20;;;;;;;10.90;3.00;;;19.90;99.90;;;;;;12080587;27;20481;-62
2021/08/22 08:23:07;;;;;;;10.27;2.95;;;20.00;99.90;;;;;;12068094;28;20048;-62
2021/08/22 08:28:56;;;;;;;7.82;2.50;;;20.50;99.90;;;;;;12065125;28;20048;-62
2021/08/22 08:34:44;;;;;;;6.55;2.47;;;20.80;99.90;;;;;;12068034;28;20500;-62
2021/08/22 08:40:31;;;;;;;7.32;2.10;;;21.00;99.90;;;;;;12065927;28;20062;-62
2021/08/22 08:46:21;;;;;;;6.88;2.22;;;21.40;99.90;;;;;;12067834;28;20531;-62
2021/08/22 08:52:13;;;;;;;6.63;2.20;;;21.50;99.90;;;;;;12064695;28;20040;-62
2021/08/22 08:58:00;;;;;;;4.82;2.00;;;21.40;99.70;;;;;;12066693;28;20036;-62
2021/08/22 09:04:08;;;;;;;6.00;2.05;;;21.30;99.70;;;;;;12067063;28;20276;-62
2021/08/22 09:10:33;;;;;;;6.55;1.92;;;21.20;98.90;;;;;;12059980;28;20127;-61
2021/08/22 09:17:20;;;;;;;8.75;2.33;;;21.20;98.40;;;;;;12063788;28;20174;-62
2021/08/22 09:23:40;;;;;;;8.68;2.15;;;21.10;99.00;;;;;;11955290;28;20045;-62
2021/08/22 09:30:33;;;;;;;5.07;2.13;;;21.50;98.50;;;;;;11926432;28;20452;-62
2021/08/22 09:36:57;;;;;;;6.97;2.05;;;21.60;97.60;;;;;;11928292;28;20109;-62
2021/08/22 09:43:11;;;;;;;6.97;1.90;;;21.70;97.30;;;;;;11927096;28;20076;-62
2021/08/22 09:49:43;;;;;;;4.50;1.95;;;21.70;97.10;;;;;;11929550;28;20053;-61
2021/08/22 09:56:10;;;;;;;5.15;2.00;;;21.60;97.00;;;;;;12017398;28;20052;-62
2021/08/22 10:02:41;;;;;;;5.68;2.15;;;20.40;99.90;;;;;;12033454;28;20041;-62
2021/08/22 10:08:36;;;;;;;4.75;2.03;;;20.20;99.90;;;;;;11883596;28;20089;-62
2021/08/22 10:14:25;;;;;;;8.75;2.35;;;20.60;99.90;;;;;;11915136;28;20046;-62
2021/08/22 10:20:14;;;;;;;6.25;1.92;;;20.80;99.90;;;;;;11922200;28;20060;-62
2021/08/22 10:26:01;;;;;;;8.52;2.33;;;21.10;99.90;;;;;;11906696;28;20157;-62
2021/08/22 10:32:11;;;;;;;10.10;3.10;;;21.20;99.90;;;;;;11882866;28;20054;-62
2021/08/22 10:38:19;;;;;;;4.28;1.50;;;21.30;99.90;;;;;;11963441;28;20573;-62
2021/08/22 10:51:09;;;;;;;4.33;2.10;;;21.50;99.90;;;;;;12042025;28;20044;-61
2021/08/22 10:56:58;;;;;;;4.65;2.10;;;21.90;99.90;;;;;;12067613;28;20337;-61
2021/08/22 11:02:45;;;;;;;5.70;2.15;;;22.10;99.90;;;;;;12067175;28;20044;-61
2021/08/22 11:08:33;;;;;;;7.10;2.00;;;22.10;99.90;;;;;;12068299;28;20105;-61
2021/08/22 11:14:21;;;;;;;11.20;2.20;;;21.80;99.90;;;;;;12067328;28;20178;-62
2021/08/22 11:20:11;;;;;;;3.40;1.40;;;22.20;99.90;;;;;;12066854;28;20427;-61
2021/08/22 11:26:03;;;;;;;4.93;1.75;;;22.60;98.40;;;;;;12059097;28;20063;-61
2021/08/22 11:32:02;;;;;;;2.80;1.30;;;22.70;96.90;;;;;;12024125;28;20049;-61
2021/08/22 11:37:49;;;;;;;4.88;1.23;;;22.60;96.60;;;;;;12024297;28;20048;-61
2021/08/22 11:43:36;;;;;;;2.88;1.20;;;22.70;95.60;;;;;;12023650;28;20574;-62
2021/08/22 11:49:26;;;;;;;2.38;1.30;;;22.90;95.40;;;;;;12021593;28;20049;-62
2021/08/22 11:55:14;;;;;;;2.70;0.90;;;23.00;95.50;;;;;;12010749;28;20045;-61
2021/08/22 12:01:13;;;;;;;2.78;1.17;;;22.90;94.20;;;;;;12022010;28;20049;-61
2021/08/22 12:07:02;;;;;;;2.72;1.10;;;22.80;95.20;;;;;;12014580;28;20071;-62
2021/08/22 12:12:49;;;;;;;1.55;1.10;;;23.10;95.00;;;;;;12004629;28;20052;-60
2021/08/22 12:25:26;;;;;;;4.78;1.40;;;23.40;93.10;;;;;;12048432;28;20135;-62
2021/08/22 12:31:15;;;;;;;4.53;1.45;;;23.10;91.90;;;;;;12008062;28;20615;-61
2021/08/22 12:43:46;;;;;;;2.92;1.02;;;23.60;91.00;;;;;;12052934;28;20119;-61
2021/08/22 12:49:34;;;;;;;7.47;1.88;;;23.70;90.30;;;;;;12051911;28;20044;-64
2021/08/22 12:55:21;;;;;;;6.10;1.45;;;23.40;91.30;;;;;;12048013;28;20036;-63
2021/08/22 13:01:09;;;;;;;4.97;1.20;;;23.40;89.80;;;;;;12052013;28;20136;-62
2021/08/22 13:06:57;;;;;;;2.45;1.25;;;23.50;90.10;;;;;;12057869;28;20066;-61
2021/08/22 13:12:44;;;;;;;3.20;1.45;;;23.40;90.10;;;;;;12058255;28;20069;-62
2021/08/22 13:18:34;;;;;;;3.17;1.20;;;23.30;90.30;;;;;;12061868;28;20052;-61
2021/08/22 13:24:21;;;;;;;2.83;1.10;;;24.10;89.10;;;;;;12053736;28;20105;-62
2021/08/22 13:30:09;;;;;;;21.42;12.25;;;24.30;81.50;;;;;;12009300;28;20045;-62
2021/08/22 13:35:58;;;;;;;2.38;1.30;;;24.40;83.70;;;;;;12018966;28;20127;-62
2021/08/22 13:41:44;;;;;;;3.13;1.40;;;24.30;80.20;;;;;;12010098;28;20113;-61
2021/08/22 13:47:31;;;;;;;3.42;1.80;;;24.20;81.70;;;;;;12006216;28;20459;-62
2021/08/22 13:53:20;;;;;;;3.13;1.50;;;24.50;82.00;;;;;;12047664;28;20049;-62
2021/08/22 13:59:07;;;;;;;4.28;1.30;;;24.70;82.60;;;;;;12064529;28;20051;-62
2021/08/22 14:04:55;;;;;;;3.90;1.50;;;24.60;81.80;;;;;;12070816;28;20106;-61
2021/08/22 14:10:43;;;;;;;1.58;1.13;;;24.60;81.80;;;;;;12070758;28;20135;-61
2021/08/22 14:16:30;;;;;;;2.95;1.10;;;24.80;80.20;;;;;;12069044;28;20040;-61
2021/08/22 14:22:20;;;;;;;2.22;1.10;;;24.60;80.10;;;;;;12457978;22;22303;-92
2021/08/22 14:28:11;;;;;;;4.05;1.00;;;24.60;80.40;;;;;;11914632;28;20054;-89
2021/08/22 14:40:08;;;;;;;4.90;1.30;;;24.30;80.60;;;;;;11920521;28;20129;-90
2021/08/22 14:46:03;;;;;;;4.47;1.30;;;24.40;80.90;;;;;;11922954;28;20064;-89
2021/08/22 14:51:51;;;;;;;3.75;1.50;;;24.50;81.10;;;;;;11926933;28;20136;-90
2021/08/22 14:57:38;;;;;;;5.60;1.65;;;24.20;81.20;;;;;;11930675;28;20173;-89
2021/08/22 15:03:26;;;;;;;4.13;1.60;;;23.70;83.80;;;;;;11928285;28;20140;-89
2021/08/22 15:09:14;;;;;;;4.10;1.40;;;23.50;84.90;;;;;;11927619;28;20549;-89
2021/08/22 15:15:05;;;;;;;8.30;1.50;;;23.40;86.40;;;;;;11928125;28;20075;-90
2021/08/22 15:21:00;;;;;;;4.25;1.30;;;23.60;86.50;;;;;;11933511;28;20049;-89
2021/08/22 15:26:48;;;;;;;5.55;1.20;;;23.60;86.20;;;;;;11930649;28;20058;-90
2021/08/22 15:32:41;;;;;;;6.78;1.40;;;24.00;84.80;;;;;;11939913;28;20065;-89
2021/08/22 15:38:34;;;;;;;;;;;24.60;83.50;;;;;;11963903;28;20117;-88
2021/08/22 15:44:24;;;;;;;3.05;1.35;;;24.60;81.30;;;;;;11970225;28;19958;-89
2021/08/22 15:50:13;;;;;;;5.53;1.33;;;24.80;80.50;;;;;;11955357;28;20427;-88
2021/08/22 15:56:03;;;;;;;2.45;1.17;;;24.50;80.00;;;;;;11945038;28;20136;-87
2021/08/22 16:01:54;;;;;;;3.83;1.52;;;24.70;79.60;;;;;;11938893;28;20050;-88
2021/08/22 16:07:42;;;;;;;76.63;57.08;;;25.00;79.80;;;;;;11950061;28;20061;-86
2021/08/22 16:13:31;;;;;;;4.22;1.20;;;25.40;78.70;;;;;;11963142;28;20054;-83
2021/08/22 16:19:18;;;;;;;2.67;1.10;;;25.50;78.50;;;;;;11965115;28;20101;-86
2021/08/22 16:25:06;;;;;;;4.40;1.17;;;26.00;76.20;;;;;;11976672;28;20052;-89
2021/08/22 16:30:56;;;;;;;37.90;27.75;;;25.40;78.20;;;;;;11951915;28;20119;-86
2021/08/22 16:36:43;;;;;;;4.25;1.50;;;25.10;80.40;;;;;;11927253;28;20046;-86
2021/08/22 16:42:34;;;;;;;5.30;1.23;;;25.40;79.80;;;;;;11929101;28;20038;-86
2021/08/22 16:48:22;;;;;;;8.73;3.85;;;27.60;74.70;;;;;;11934782;28;20068;-89
2021/08/22 16:54:09;;;;;;;3.85;1.75;;;31.40;63.70;;;;;;11941652;28;20081;-88
2021/08/22 16:59:56;;;;;;;5.88;1.50;;;32.50;57.30;;;;;;11930265;28;20058;-88
2021/08/22 17:05:50;;;;;;;2.92;1.25;;;33.30;55.70;;;;;;11937382;28;20050;-91
2021/08/22 17:11:38;;;;;;;4.55;1.48;;;34.50;53.20;;;;;;11936510;28;20050;-90
2021/08/22 17:17:28;;;;;;;6.10;4.03;;;33.10;53.80;;;;;;11935217;28;20045;-86
2021/08/22 17:23:18;;;;;;;2.92;1.50;;;31.70;55.40;;;;;;11928135;28;20054;-87
2021/08/22 17:29:05;;;;;;;3.25;1.60;;;30.70;56.30;;;;;;11934164;28;20045;-87
2021/08/22 17:34:57;;;;;;;3.08;1.98;;;29.10;58.90;;;;;;11934755;28;20046;-87
2021/08/22 17:40:47;;;;;;;3.20;1.95;;;27.20;64.00;;;;;;11936893;28;20523;-88
2021/08/22 17:46:38;;;;;;;5.55;2.33;;;26.40;67.60;;;;;;11947445;28;20504;-89
2021/08/22 17:52:27;;;;;;;5.40;2.13;;;26.70;67.60;;;;;;11950173;28;20401;-90
2021/08/22 17:58:19;;;;;;;4.10;2.20;;;27.30;65.80;;;;;;11940594;28;20107;-89
2021/08/22 18:04:06;;;;;;;3.47;1.90;;;26.00;69.00;;;;;;11943366;28;20124;-89
2021/08/22 18:09:53;;;;;;;4.40;2.10;;;25.20;72.40;;;;;;11933651;28;20148;-88
2021/08/22 18:15:42;;;;;;;3.85;2.53;;;24.60;74.10;;;;;;11938532;28;20045;-85
2021/08/22 18:21:33;;;;;;;5.97;2.70;;;24.30;75.50;;;;;;11934780;28;20566;-89
2021/08/22 18:33:28;;;;;;;5.72;2.70;;;23.80;78.10;;;;;;11928190;28;20064;-81
2021/08/22 18:39:15;;;;;;;4.28;2.50;;;23.50;79.30;;;;;;11923010;28;20080;-81
2021/08/22 18:45:02;;;;;;;5.25;2.40;;;23.50;80.10;;;;;;11921348;28;20427;-81
2021/08/22 18:50:50;;;;;;;10.93;3.70;;;23.40;80.30;;;;;;11909401;28;20580;-82
2021/08/22 18:56:37;;;;;;;4.82;2.80;;;23.30;81.70;;;;;;11909482;28;20384;-83
2021/08/22 19:02:25;;;;;;;6.35;3.00;;;23.20;82.00;;;;;;11920446;28;20042;-83
2021/08/22 19:08:14;;;;;;;5.80;2.85;;;22.90;83.10;;;;;;11917289;28;20217;-82
2021/08/22 19:14:05;;;;;;;4.93;2.83;;;22.90;83.50;;;;;;11919563;28;20061;-82
2021/08/22 19:19:52;;;;;;;4.05;2.80;;;22.90;84.00;;;;;;11907054;28;20085;-83
2021/08/22 19:25:46;;;;;;;8.73;4.43;;;22.90;84.40;;;;;;11918143;28;20076;-83
2021/08/22 19:31:35;;;;;;;6.68;3.50;;;22.80;84.80;;;;;;11927729;28;20493;-83
2021/08/22 19:37:22;;;;;;;7.07;4.25;;;22.80;85.30;;;;;;11908017;28;20507;-83
2021/08/22 19:43:10;;;;;;;6.28;3.65;;;22.70;85.70;;;;;;11909151;28;20355;-82
2021/08/22 19:49:05;;;;;;;25.33;15.75;;;22.60;85.90;;;;;;11917702;28;20061;-84
2021/08/22 19:54:52;;;;;;;10.35;6.15;;;22.60;86.50;;;;;;11918966;28;20058;-85
2021/08/22 20:00:40;;;;;;;10.90;5.15;;;22.40;86.80;;;;;;11907950;28;20058;-91
2021/08/22 20:06:37;;;;;;;8.55;5.28;;;22.50;87.20;;;;;;11917880;28;20038;-88
2021/08/22 20:18:52;;;;;;;7.18;4.00;;;22.10;88.10;;;;;;11909684;28;20045;-88
2021/08/22 21:27:10;;;;;;;10.27;4.32;;;21.40;91.60;;;;;;12101618;22;20099;-87
2021/08/22 21:52:27;;;;;;;9.30;5.43;;;21.50;92.10;;;;;;11807624;28;20452;-88
2021/08/22 22:17:36;;;;;;;13.15;5.43;;;21.20;93.20;;;;;;11995787;28;20564;-58
2021/08/22 22:23:23;;;;;;;10.98;5.18;;;21.10;93.50;;;;;;11985640;28;20652;-59
2021/08/22 22:29:10;;;;;;;10.07;5.47;;;21.10;93.70;;;;;;11996093;28;20562;-59
2021/08/22 22:34:58;;;;;;;11.60;4.88;;;21.10;93.90;;;;;;11994141;28;20059;-60
2021/08/22 22:40:45;;;;;;;16.35;4.88;;;21.10;94.20;;;;;;11991024;28;20079;-60
2021/08/22 22:46:32;;;;;;;9.98;5.20;;;21.00;94.40;;;;;;11999571;28;20048;-60
2021/08/22 22:52:20;;;;;;;12.68;5.40;;;21.00;94.70;;;;;;11994622;28;20057;-60
2021/08/22 22:58:15;;;;;;;12.27;5.38;;;21.00;94.90;;;;;;11995781;28;20048;-61
2021/08/22 23:04:02;;;;;;;11.32;4.97;;;21.00;95.10;;;;;;11995169;28;20877;-59
2021/08/22 23:09:51;;;;;;;10.57;4.93;;;21.00;95.20;;;;;;11989177;28;20480;-61
2021/08/22 23:15:39;;;;;;;11.15;4.88;;;21.10;95.20;;;;;;11995506;28;20139;-59
2021/08/22 23:21:26;;;;;;;11.38;5.65;;;21.10;95.20;;;;;;11996852;28;20101;-60
